Time;durP1;ratioP1;P1;durP2;ratioP2;P2;SDS_P1;SDS_P2;PMS_P1;PMS_P2;Temp;Humidity;BMP_temperature;BMP_pressure;BME280_temperature;BME280_humidity;BME280_pressure;Samples;Min_cycle;Max_cycle;Signal;HPM_P1;HPM_P2
2022/11/23 04:59:48;;;;;;;;;;;20.00;99.90;;;;;;5843930;23;19965;-80
2022/11/23 05:02:16;;;;;;;;;;;19.90;99.90;;;;;;4985275;28;19926;-80
2022/11/23 05:04:43;;;;;;;;;;;19.90;99.90;;;;;;4985212;28;19926;-82
2022/11/23 05:07:09;;;;;;;;;;;19.90;99.90;;;;;;4985006;28;19934;-80
2022/11/23 05:09:36;;;;;;;;;;;19.90;99.90;;;;;;4984233;28;19926;-79
2022/11/23 05:12:03;;;;;;;;;;;19.90;99.90;;;;;;4984662;28;19927;-80
2022/11/23 05:14:30;;;;;;;;;;;19.90;99.90;;;;;;4984339;28;19926;-83
2022/11/23 05:16:57;;;;;;;;;;;19.90;99.90;;;;;;4979355;28;19933;-80
2022/11/23 05:19:25;;;;;;;;;;;19.90;99.90;;;;;;5060032;23;19937;-80
2022/11/23 05:21:51;;;;;;;;;;;19.90;99.90;;;;;;4981064;28;19932;-80
2022/11/23 05:24:18;;;;;;;;;;;19.90;99.90;;;;;;4979551;28;19948;-80
2022/11/23 05:26:44;;;;;;;;;;;19.90;99.90;;;;;;4989308;28;19934;-81
2022/11/23 05:29:11;;;;;;;;;;;19.90;99.90;;;;;;4991558;28;19933;-81
2022/11/23 05:31:38;;;;;;;;;;;19.90;99.90;;;;;;4979467;28;19976;-80
2022/11/23 05:34:04;;;;;;;;;;;19.80;99.90;;;;;;4980596;28;20298;-81
2022/11/23 05:36:32;;;;;;;;;;;19.90;99.90;;;;;;4979649;28;19933;-82
2022/11/23 05:38:59;;;;;;;;;;;19.80;99.90;;;;;;4980740;28;20092;-80
2022/11/23 05:41:25;;;;;;;;;;;19.80;99.90;;;;;;4981041;28;19933;-80
2022/11/23 05:43:52;;;;;;;;;;;19.80;99.90;;;;;;4981089;28;20393;-80
2022/11/23 05:46:18;;;;;;;;;;;19.80;99.90;;;;;;4982959;28;19926;-83
2022/11/23 05:48:45;;;;;;;;;;;19.80;99.90;;;;;;4980717;28;19926;-84
2022/11/23 05:51:12;;;;;;;;;;;19.80;99.90;;;;;;4982823;28;19932;-82
2022/11/23 05:53:39;;;;;;;;;;;19.80;99.90;;;;;;4983091;28;19949;-81
2022/11/23 05:56:06;;;;;;;;;;;19.80;99.90;;;;;;4984631;28;19934;-82
2022/11/23 05:58:33;;;;;;;;;;;19.80;99.90;;;;;;4984959;28;19926;-84
2022/11/23 06:01:00;;;;;;;;;;;20.10;99.90;;;;;;4981988;28;19936;-81
2022/11/23 06:03:27;;;;;;;;;;;19.80;99.90;;;;;;4984137;28;19993;-83
2022/11/23 06:05:53;;;;;;;;;;;19.90;99.90;;;;;;4985647;28;20449;-83
2022/11/23 06:08:20;;;;;;;;;;;19.80;99.90;;;;;;4986146;28;19930;-83
2022/11/23 06:10:48;;;;;;;;;;;19.90;99.90;;;;;;4985950;28;19926;-83
2022/11/23 06:13:14;;;;;;;;;;;19.80;99.90;;;;;;4987497;28;19927;-83
2022/11/23 11:29:02;;;;;;;;;;;19.80;91.70;;;;;;5425382;23;19968;-80
2022/11/23 11:31:45;;;;;;;;;;;19.80;91.70;;;;;;4979022;28;19926;-79
2022/11/23 11:34:18;;;;;;;;;;;19.80;91.60;;;;;;4978461;28;19926;-79
2022/11/23 11:36:47;;;;;;;;;;;19.80;91.60;;;;;;4977512;28;19926;-79
2022/11/23 11:39:18;;;;;;;;;;;19.80;91.50;;;;;;4976839;28;19926;-79
2022/11/23 11:41:46;;;;;;;;;;;19.90;91.60;;;;;;4976233;28;19977;-79
2022/11/23 11:44:17;;;;;;;;;;;19.90;91.50;;;;;;4975800;28;19932;-78
2022/11/23 11:46:46;;;;;;;;;;;19.80;91.50;;;;;;4976429;28;19933;-78
2022/11/23 11:49:15;;;;;;;;;;;19.90;91.50;;;;;;4976192;28;20417;-78
2022/11/23 11:51:43;;;;;;;;;;;19.90;91.50;;;;;;4977899;28;19933;-79
2022/11/23 11:54:13;;;;;;;;;;;19.90;91.60;;;;;;4977347;28;20357;-78
2022/11/23 11:56:42;;;;;;;;;;;19.90;91.60;;;;;;4991154;28;19926;-79
2022/11/23 11:59:13;;;;;;;;;;;19.90;91.70;;;;;;4990961;28;19926;-79
2022/11/23 12:01:44;;;;;;;;;;;19.40;91.50;;;;;;4983880;28;19926;-79
2022/11/23 12:04:14;;;;;;;;;;;20.00;91.80;;;;;;4978884;28;19926;-80
2022/11/23 12:06:43;;;;;;;;;;;20.00;91.90;;;;;;4976957;28;19949;-80
2022/11/23 12:09:12;;;;;;;;;;;20.00;92.30;;;;;;4976449;28;19926;-78
2022/11/23 12:11:39;;;;;;;;;;;20.00;92.00;;;;;;4978259;28;20396;-81
2022/11/23 12:14:06;;;;;;;;;;;20.00;92.20;;;;;;4981208;28;19963;-81
2022/11/23 12:16:38;;;;;;;;;;;20.00;92.20;;;;;;4981657;28;19930;-81
2022/11/23 12:19:12;;;;;;;;;;;19.80;92.10;;;;;;4978918;28;19930;-81
2022/11/23 12:21:56;;;;;;;;;;;20.40;92.40;;;;;;4978680;28;20294;-81
2022/11/23 12:24:26;;;;;;;;;;;20.00;92.30;;;;;;4979107;28;19930;-81
2022/11/23 12:26:57;;;;;;;;;;;20.00;92.30;;;;;;4977871;28;20389;-81
2022/11/23 12:29:40;;;;;;;;;;;20.00;92.40;;;;;;4981124;28;19926;-80
2022/11/23 12:32:12;;;;;;;;;;;20.00;92.60;;;;;;4980235;28;19927;-80
2022/11/23 12:34:56;;;;;;;;;;;20.10;92.90;;;;;;4979681;28;19933;-79
2022/11/23 12:37:38;;;;;;;;;;;20.10;92.90;;;;;;4980738;28;19930;-80
2022/11/23 12:40:25;;;;;;;;;;;20.10;93.10;;;;;;4981037;28;19934;-81
2022/11/23 12:42:55;;;;;;;;;;;20.20;93.40;;;;;;4946174;28;19927;-81
2022/11/23 12:45:31;;;;;;;;;;;20.20;93.70;;;;;;4983226;28;19926;-80
2022/11/23 12:48:02;;;;;;;;;;;20.20;93.90;;;;;;4983169;28;19934;-80
2022/11/23 12:50:30;;;;;;;;;;;20.20;94.10;;;;;;4984602;28;19933;-80
2022/11/23 12:53:00;;;;;;;;;;;20.30;94.40;;;;;;4983999;28;19941;-80
2022/11/23 12:55:30;;;;;;;;;;;20.40;94.60;;;;;;4983923;28;19937;-81
2022/11/23 12:58:00;;;;;;;;;;;20.40;94.80;;;;;;4984992;28;20366;-80
2022/11/23 13:00:31;;;;;;;;;;;20.30;94.90;;;;;;4985844;28;19934;-81
2022/11/23 13:03:16;;;;;;;;;;;20.30;95.10;;;;;;4984815;28;19933;-81
2022/11/23 13:05:57;;;;;;;;;;;20.10;95.20;;;;;;4984993;28;19930;-81
2022/11/23 13:08:37;;;;;;;;;;;20.30;95.40;;;;;;4980858;28;19976;-81
2022/11/23 13:11:10;;;;;;;;;;;20.30;95.50;;;;;;4983473;28;19938;-80
2022/11/23 13:13:47;;;;;;;;;;;20.30;95.40;;;;;;4986169;28;19927;-81
2022/11/23 13:16:35;;;;;;;;;;;20.30;95.50;;;;;;4984517;28;19926;-79
2022/11/23 13:19:12;;;;;;;;;;;20.30;95.60;;;;;;4982998;28;19940;-81
2022/11/23 13:21:39;;;;;;;;;;;20.20;95.60;;;;;;4981338;28;19933;-81
2022/11/23 13:24:21;;;;;;;;;;;20.20;95.70;;;;;;4979235;28;19926;-80
2022/11/23 13:27:09;;;;;;;;;;;20.20;95.70;;;;;;4978496;28;19926;-80
2022/11/23 13:29:57;;;;;;;;;;;20.20;95.70;;;;;;4978724;28;19926;-80
2022/11/23 13:32:45;;;;;;;;;;;20.20;95.70;;;;;;4978944;28;19932;-81
2022/11/23 13:35:26;;;;;;;;;;;20.10;95.60;;;;;;4974167;28;19926;-82
2022/11/23 13:38:12;;;;;;;;;;;20.10;95.70;;;;;;4977364;28;20419;-80
2022/11/23 13:40:38;;;;;;;;;;;20.10;95.70;;;;;;4978617;28;19926;-82
2022/11/23 13:43:12;;;;;;;;;;;20.10;95.70;;;;;;4978908;28;20030;-81
2022/11/23 13:45:38;;;;;;;;;;;20.00;95.70;;;;;;4978678;28;19933;-80
2022/11/23 13:48:17;;;;;;;;;;;20.10;95.80;;;;;;4985121;28;19926;-78
2022/11/23 13:50:59;;;;;;;;;;;20.10;95.80;;;;;;4986346;28;19937;-77
2022/11/23 13:53:27;;;;;;;;;;;20.10;95.80;;;;;;4982592;28;19926;-77
2022/11/23 13:55:55;;;;;;;;;;;20.10;95.80;;;;;;4984188;28;20389;-78
2022/11/23 13:58:36;;;;;;;;;;;20.00;95.80;;;;;;4989613;28;19926;-78
2022/11/23 14:01:03;;;;;;;;;;;20.10;95.90;;;;;;4990967;28;19930;-78
2022/11/23 14:03:47;;;;;;;;;;;20.10;96.00;;;;;;4990475;28;20009;-78
2022/11/23 14:06:20;;;;;;;;;;;20.10;96.00;;;;;;4984521;28;19930;-78
2022/11/23 14:08:48;;;;;;;;;;;20.10;96.10;;;;;;4982414;28;19926;-79
2022/11/23 14:11:17;;;;;;;;;;;20.10;96.10;;;;;;4984040;28;19969;-79
2022/11/23 14:13:51;;;;;;;;;;;20.10;96.10;;;;;;4982409;28;19949;-79
2022/11/23 14:16:22;;;;;;;;;;;20.10;96.10;;;;;;4983807;28;20333;-79
2022/11/23 14:18:56;;;;;;;;;;;20.10;96.10;;;;;;4980435;28;20349;-78
2022/11/23 14:21:25;;;;;;;;;;;20.00;96.00;;;;;;4982870;28;19926;-78
2022/11/23 14:24:10;;;;;;;;;;;20.10;96.10;;;;;;4983290;28;19990;-78
2022/11/23 14:26:42;;;;;;;;;;;20.00;96.00;;;;;;4982893;28;19968;-78
2022/11/23 14:29:26;;;;;;;;;;;20.00;96.00;;;;;;4982790;28;19926;-78
2022/11/23 14:32:01;;;;;;;;;;;20.00;96.00;;;;;;4982874;28;19930;-78
2022/11/23 14:34:33;;;;;;;;;;;20.00;96.00;;;;;;4982423;28;19927;-77
2022/11/23 14:37:04;;;;;;;;;;;20.00;96.00;;;;;;4982562;28;19926;-78
2022/11/23 14:39:46;;;;;;;;;;;20.00;95.90;;;;;;4983116;28;19929;-79
2022/11/23 14:42:17;;;;;;;;;;;20.00;95.90;;;;;;4982646;28;19995;-80
2022/11/23 14:44:47;;;;;;;;;;;20.00;95.90;;;;;;4983009;28;19936;-80
2022/11/23 14:47:15;;;;;;;;;;;20.00;95.80;;;;;;4983379;28;19930;-79
2022/11/23 14:49:59;;;;;;;;;;;19.90;95.70;;;;;;4986205;28;19990;-78
2022/11/23 14:52:27;;;;;;;;;;;20.00;95.80;;;;;;4985546;28;19981;-78
2022/11/23 14:54:55;;;;;;;;;;;20.00;95.90;;;;;;4988449;28;19972;-79
2022/11/23 14:57:22;;;;;;;;;;;19.90;95.70;;;;;;4984299;28;19926;-78
2022/11/23 14:59:52;;;;;;;;;;;20.00;95.70;;;;;;4980089;28;19926;-78
2022/11/23 15:02:21;;;;;;;;;;;20.00;95.70;;;;;;4986279;28;19934;-80
2022/11/23 15:04:53;;;;;;;;;;;19.90;95.60;;;;;;4984867;28;19934;-80
2022/11/23 15:07:22;;;;;;;;;;;20.00;95.70;;;;;;4983359;28;19932;-80
2022/11/23 15:09:51;;;;;;;;;;;20.00;95.70;;;;;;4983411;28;19926;-80
2022/11/23 15:12:21;;;;;;;;;;;19.90;95.60;;;;;;4982900;28;19926;-79
2022/11/23 15:14:47;;;;;;;;;;;19.90;95.70;;;;;;4980761;28;19933;-82
2022/11/23 15:17:16;;;;;;;;;;;20.00;95.80;;;;;;4978524;28;19930;-81
2022/11/23 15:19:43;;;;;;;;;;;19.90;95.70;;;;;;4978033;28;19997;-80
2022/11/23 15:22:14;;;;;;;;;;;19.90;95.70;;;;;;4977191;28;19933;-80
2022/11/23 15:24:41;;;;;;;;;;;19.90;95.70;;;;;;4977610;28;19992;-80
2022/11/23 15:27:15;;;;;;;;;;;19.90;95.70;;;;;;4977539;28;19926;-80
2022/11/23 15:29:50;;;;;;;;;;;19.90;95.60;;;;;;4977220;28;19973;-80
2022/11/23 15:32:21;;;;;;;;;;;19.90;95.60;;;;;;4977426;28;19926;-80
2022/11/23 15:34:48;;;;;;;;;;;19.90;95.60;;;;;;4976888;28;19933;-80
2022/11/23 15:37:16;;;;;;;;;;;19.90;95.60;;;;;;4977269;28;19942;-80
2022/11/23 15:39:43;;;;;;;;;;;19.80;95.50;;;;;;4976904;28;19933;-80
2022/11/23 15:42:11;;;;;;;;;;;19.80;95.50;;;;;;4977734;28;19926;-80
2022/11/23 15:44:38;;;;;;;;;;;19.90;95.50;;;;;;4977356;28;19941;-80
2022/11/23 15:47:05;;;;;;;;;;;19.80;95.40;;;;;;4977788;28;19937;-80
2022/11/23 15:49:36;;;;;;;;;;;19.80;95.40;;;;;;4977818;28;19926;-80
2022/11/23 15:52:03;;;;;;;;;;;19.80;95.40;;;;;;4978383;28;20386;-81
2022/11/23 15:54:33;;;;;;;;;;;19.80;95.40;;;;;;4978632;28;19926;-81
2022/11/23 15:57:00;;;;;;;;;;;19.70;95.30;;;;;;4978826;28;19926;-81
2022/11/23 15:59:30;;;;;;;;;;;19.70;95.20;;;;;;4979602;28;19957;-81
2022/11/23 16:01:57;;;;;;;;;;;19.70;95.20;;;;;;4979188;28;19926;-81
2022/11/23 16:04:26;;;;;;;;;;;19.70;95.10;;;;;;4980465;28;19926;-81
2022/11/23 16:06:54;;;;;;;;;;;19.70;95.10;;;;;;4979371;28;19949;-81
2022/11/23 16:09:37;;;;;;;;;;;19.70;95.10;;;;;;4983032;28;19949;-82
2022/11/23 16:12:05;;;;;;;;;;;19.70;95.20;;;;;;4984422;28;19937;-82
2022/11/23 16:14:33;;;;;;;;;;;19.70;95.10;;;;;;4985225;28;19933;-82
2022/11/23 16:17:02;;;;;;;;;;;19.80;95.20;;;;;;4978633;28;20016;-78
2022/11/23 16:19:29;;;;;;;;;;;19.70;95.10;;;;;;4977869;28;19926;-77
2022/11/23 16:21:59;;;;;;;;;;;19.80;95.20;;;;;;4980297;28;19926;-79
2022/11/23 16:24:26;;;;;;;;;;;19.70;95.10;;;;;;4981497;28;19926;-78
2022/11/23 16:26:53;;;;;;;;;;;19.70;95.10;;;;;;4978845;28;20328;-78
2022/11/23 16:29:21;;;;;;;;;;;19.70;95.10;;;;;;4980223;28;19926;-79
2022/11/23 16:31:52;;;;;;;;;;;19.70;95.20;;;;;;4979206;28;19926;-78
2022/11/23 16:34:19;;;;;;;;;;;19.60;95.10;;;;;;4980037;28;20294;-79
2022/11/23 16:36:45;;;;;;;;;;;19.60;95.10;;;;;;4981219;28;19930;-79
2022/11/23 16:39:13;;;;;;;;;;;19.60;95.10;;;;;;4980694;28;19933;-78
2022/11/23 16:41:40;;;;;;;;;;;19.60;95.10;;;;;;4978643;28;19927;-78
2022/11/23 16:44:06;;;;;;;;;;;19.60;95.10;;;;;;4978552;28;19933;-78
2022/11/23 16:46:33;;;;;;;;;;;19.60;95.10;;;;;;4978548;28;20325;-78
2022/11/23 16:49:00;;;;;;;;;;;19.60;95.10;;;;;;4978954;28;19926;-78
2022/11/23 16:51:27;;;;;;;;;;;19.60;95.10;;;;;;4979633;28;19926;-78
2022/11/23 16:53:54;;;;;;;;;;;19.70;95.10;;;;;;4978388;28;19926;-78
2022/11/23 16:56:23;;;;;;;;;;;19.60;95.10;;;;;;4978346;28;19927;-78
2022/11/23 16:58:50;;;;;;;;;;;19.60;95.10;;;;;;4978887;28;19933;-78
2022/11/23 17:01:18;;;;;;;;;;;19.60;95.10;;;;;;4979693;28;19949;-79
2022/11/23 17:03:45;;;;;;;;;;;19.60;95.20;;;;;;4979097;28;20313;-78
2022/11/23 17:06:12;;;;;;;;;;;19.60;95.00;;;;;;4978262;28;19933;-78
2022/11/23 17:08:39;;;;;;;;;;;19.60;95.00;;;;;;4979013;28;19932;-79
2022/11/23 17:11:08;;;;;;;;;;;19.60;95.00;;;;;;4979649;28;19937;-80
2022/11/23 17:13:36;;;;;;;;;;;19.50;94.90;;;;;;4980173;28;19926;-79
2022/11/23 17:16:03;;;;;;;;;;;19.50;94.90;;;;;;4978865;28;20298;-79
2022/11/23 17:18:29;;;;;;;;;;;19.50;94.90;;;;;;4978089;28;20294;-79
2022/11/23 17:20:56;;;;;;;;;;;19.50;94.90;;;;;;4978346;28;19933;-79
2022/11/23 17:23:22;;;;;;;;;;;19.50;94.90;;;;;;4977840;28;19926;-78
2022/11/23 17:25:49;;;;;;;;;;;19.50;94.80;;;;;;4977829;28;19926;-78
2022/11/23 17:28:19;;;;;;;;;;;19.50;94.80;;;;;;4978123;28;20378;-79
2022/11/23 17:30:48;;;;;;;;;;;19.50;94.80;;;;;;4977099;28;19932;-79
2022/11/23 17:33:14;;;;;;;;;;;19.50;94.80;;;;;;4977919;28;19933;-79
2022/11/23 17:35:41;;;;;;;;;;;19.50;94.90;;;;;;4979855;28;19926;-80
2022/11/23 17:38:12;;;;;;;;;;;19.50;95.00;;;;;;4981478;28;20396;-80
2022/11/23 17:40:39;;;;;;;;;;;19.50;95.00;;;;;;4981459;28;19977;-79
2022/11/23 17:43:05;;;;;;;;;;;19.50;95.10;;;;;;4981313;28;19930;-80
2022/11/23 17:45:32;;;;;;;;;;;19.60;95.10;;;;;;4979277;28;19926;-79
2022/11/23 17:48:00;;;;;;;;;;;19.50;95.00;;;;;;4978548;28;19926;-79
2022/11/23 17:50:27;;;;;;;;;;;19.60;95.10;;;;;;5004096;23;19933;-83
2022/11/23 17:52:54;;;;;;;;;;;19.60;95.10;;;;;;4960577;29;19946;-86
2022/11/23 17:55:20;;;;;;;;;;;19.50;95.10;;;;;;4958604;29;19927;-86
2022/11/23 17:57:47;;;;;;;;;;;19.60;95.20;;;;;;4958219;29;20330;-87
2022/11/23 18:00:15;;;;;;;;;;;19.50;95.20;;;;;;4958076;29;19926;-86
2022/11/23 18:02:42;;;;;;;;;;;19.60;95.30;;;;;;4938881;29;19934;-86
2022/11/23 18:05:10;;;;;;;;;;;19.50;95.20;;;;;;4938555;29;20386;-87
2022/11/23 18:07:37;;;;;;;;;;;19.60;95.30;;;;;;4938815;29;20294;-87
2022/11/23 18:10:04;;;;;;;;;;;19.60;95.40;;;;;;4938785;29;19927;-86
2022/11/23 18:12:31;;;;;;;;;;;19.60;95.40;;;;;;4938316;29;20398;-86
2022/11/23 18:14:57;;;;;;;;;;;18.90;95.00;;;;;;4938776;29;19950;-86
2022/11/23 18:17:24;;;;;;;;;;;19.60;95.40;;;;;;4938576;29;19999;-86
2022/11/23 18:19:51;;;;;;;;;;;19.60;95.50;;;;;;4938243;29;20379;-86
2022/11/23 18:22:19;;;;;;;;;;;19.70;95.50;;;;;;4939319;29;19930;-82
2022/11/23 18:24:46;;;;;;;;;;;19.60;95.40;;;;;;4940818;29;20338;-81
2022/11/23 18:27:13;;;;;;;;;;;19.60;95.60;;;;;;4940286;29;19926;-80
2022/11/23 18:29:40;;;;;;;;;;;19.60;95.70;;;;;;4940311;29;19927;-81
2022/11/23 18:32:07;;;;;;;;;;;19.60;95.80;;;;;;4940357;29;19927;-81
2022/11/23 18:34:34;;;;;;;;;;;19.70;95.90;;;;;;4939906;29;19937;-81
2022/11/23 18:37:00;;;;;;;;;;;19.70;96.00;;;;;;4940064;29;19927;-81
2022/11/23 18:39:28;;;;;;;;;;;19.70;96.00;;;;;;4939482;29;20402;-82
2022/11/23 18:41:55;;;;;;;;;;;19.70;96.10;;;;;;4940012;29;19927;-84
2022/11/23 18:44:21;;;;;;;;;;;19.90;96.30;;;;;;4939923;29;19927;-81
2022/11/23 18:46:48;;;;;;;;;;;19.70;96.30;;;;;;4939669;29;20302;-81
2022/11/23 18:49:14;;;;;;;;;;;19.70;96.60;;;;;;4939975;29;19942;-81
2022/11/23 18:51:41;;;;;;;;;;;19.80;96.40;;;;;;4939936;29;19933;-82
2022/11/23 18:54:08;;;;;;;;;;;19.70;96.30;;;;;;4939793;29;20374;-81
2022/11/23 18:56:36;;;;;;;;;;;19.70;96.40;;;;;;4940042;29;19933;-83
2022/11/23 18:59:03;;;;;;;;;;;19.90;96.40;;;;;;4940738;29;19965;-82
2022/11/23 19:01:29;;;;;;;;;;;19.80;96.40;;;;;;4940164;29;19927;-81
2022/11/23 19:03:56;;;;;;;;;;;19.80;96.50;;;;;;4942710;29;20302;-82
2022/11/23 19:06:23;;;;;;;;;;;19.70;96.50;;;;;;4946048;29;19934;-83
2022/11/23 19:08:50;;;;;;;;;;;20.10;96.80;;;;;;4945831;29;19927;-84
2022/11/23 19:11:18;;;;;;;;;;;19.80;96.70;;;;;;4946073;29;19974;-82
2022/11/23 19:13:47;;;;;;;;;;;19.80;96.80;;;;;;4944699;29;19934;-80
2022/11/23 19:16:14;;;;;;;;;;;19.80;96.80;;;;;;4942322;29;19927;-81
2022/11/23 19:18:41;;;;;;;;;;;19.90;97.00;;;;;;4938162;29;19931;-81
2022/11/23 19:21:20;;;;;;;;;;;19.90;97.00;;;;;;4937977;29;19931;-80
2022/11/23 19:23:48;;;;;;;;;;;19.90;97.00;;;;;;4938046;29;20394;-80
2022/11/23 19:26:15;;;;;;;;;;;19.90;97.00;;;;;;4937998;29;19927;-80
2022/11/23 19:28:43;;;;;;;;;;;19.90;97.00;;;;;;4938267;29;19927;-80
2022/11/23 19:31:12;;;;;;;;;;;19.90;97.00;;;;;;4942689;29;20021;-80
2022/11/23 19:33:39;;;;;;;;;;;19.90;97.10;;;;;;4945801;29;19927;-80
2022/11/23 19:36:06;;;;;;;;;;;19.90;97.10;;;;;;4938707;29;19927;-80
2022/11/23 19:38:32;;;;;;;;;;;19.90;97.10;;;;;;4939190;29;19935;-79
2022/11/23 19:40:59;;;;;;;;;;;19.90;97.20;;;;;;4938573;29;19961;-80
2022/11/23 19:43:26;;;;;;;;;;;19.90;97.20;;;;;;4938410;29;19933;-80
2022/11/23 19:45:53;;;;;;;;;;;19.90;97.20;;;;;;4938854;29;19949;-81
2022/11/23 19:48:21;;;;;;;;;;;19.90;97.20;;;;;;4937890;29;19927;-81
2022/11/23 19:50:57;;;;;;;;;;;19.90;97.30;;;;;;4937212;29;21457;-81
2022/11/23 19:53:23;;;;;;;;;;;19.90;97.60;;;;;;4937349;29;19927;-81
2022/11/23 19:55:50;;;;;;;;;;;19.90;97.70;;;;;;4937997;29;20401;-81
2022/11/23 19:58:16;;;;;;;;;;;19.70;97.60;;;;;;4938772;29;19926;-81
2022/11/23 20:00:44;;;;;;;;;;;19.90;97.70;;;;;;4939535;29;19934;-80
2022/11/23 20:03:11;;;;;;;;;;;19.90;97.70;;;;;;4939133;29;19981;-80
2022/11/23 20:05:39;;;;;;;;;;;19.90;97.70;;;;;;4939519;29;19950;-82
2022/11/23 20:08:07;;;;;;;;;;;19.90;97.70;;;;;;4939761;29;19934;-81
2022/11/23 20:10:34;;;;;;;;;;;19.90;97.70;;;;;;4937916;29;19994;-81
2022/11/23 20:13:00;;;;;;;;;;;19.70;97.60;;;;;;4937737;29;20446;-81
2022/11/23 20:15:27;;;;;;;;;;;19.90;97.70;;;;;;4938352;29;19934;-81
2022/11/23 20:17:53;;;;;;;;;;;19.90;97.80;;;;;;4941281;29;19926;-82
2022/11/23 20:20:20;;;;;;;;;;;19.90;97.90;;;;;;4945623;29;19934;-80
2022/11/23 20:22:48;;;;;;;;;;;20.00;98.00;;;;;;4941199;29;20421;-80
2022/11/23 20:25:15;;;;;;;;;;;19.90;98.00;;;;;;4940128;29;19927;-80
2022/11/23 20:27:41;;;;;;;;;;;19.90;98.10;;;;;;4940681;29;19978;-80
2022/11/23 20:30:08;;;;;;;;;;;19.80;98.20;;;;;;4940020;29;19930;-80
2022/11/23 20:32:35;;;;;;;;;;;19.90;98.30;;;;;;4940235;29;19926;-80
2022/11/23 20:35:02;;;;;;;;;;;19.90;98.40;;;;;;4939858;29;19926;-80
2022/11/23 20:37:28;;;;;;;;;;;19.90;98.40;;;;;;4939452;29;19930;-80
2022/11/23 20:39:56;;;;;;;;;;;19.90;98.50;;;;;;4938891;29;19926;-80
2022/11/23 20:42:23;;;;;;;;;;;19.90;98.50;;;;;;4939807;29;19926;-81
2022/11/23 20:44:49;;;;;;;;;;;19.90;98.60;;;;;;4939491;29;19934;-82
2022/11/23 20:47:16;;;;;;;;;;;19.80;98.60;;;;;;4939763;29;19949;-80
2022/11/23 20:49:42;;;;;;;;;;;19.80;98.70;;;;;;4939743;29;19934;-80
2022/11/23 20:52:09;;;;;;;;;;;19.80;98.80;;;;;;4939052;29;19927;-80
2022/11/23 20:54:36;;;;;;;;;;;19.80;98.90;;;;;;4939126;29;19927;-80
2022/11/23 20:57:04;;;;;;;;;;;19.90;99.00;;;;;;4939132;29;19927;-80
2022/11/23 20:59:31;;;;;;;;;;;19.90;99.00;;;;;;4938641;29;20306;-80
2022/11/23 21:01:58;;;;;;;;;;;19.90;99.40;;;;;;4939345;29;19993;-80
2022/11/23 21:04:24;;;;;;;;;;;19.80;99.40;;;;;;4939884;29;19933;-80
2022/11/23 21:06:51;;;;;;;;;;;19.80;99.10;;;;;;4942559;29;19927;-80
2022/11/23 21:09:18;;;;;;;;;;;19.80;99.20;;;;;;4942418;29;19986;-80
2022/11/23 21:14:31;;;;;;;;;;;19.80;99.20;;;;;;4942132;29;19981;-80
2022/11/23 21:16:58;;;;;;;;;;;19.80;99.30;;;;;;4942105;29;19950;-80
2022/11/23 21:19:26;;;;;;;;;;;19.80;99.30;;;;;;4941568;29;19926;-80
2022/11/23 21:21:53;;;;;;;;;;;19.80;99.40;;;;;;4941520;29;19934;-80
2022/11/23 21:24:20;;;;;;;;;;;19.80;99.40;;;;;;4941754;29;20322;-80
2022/11/23 21:26:47;;;;;;;;;;;19.80;99.50;;;;;;4941265;29;20351;-80
2022/11/23 21:29:14;;;;;;;;;;;19.80;99.50;;;;;;4941335;29;19989;-80
2022/11/23 21:31:42;;;;;;;;;;;19.80;99.60;;;;;;4941250;29;19961;-80
2022/11/23 21:34:16;;;;;;;;;;;19.80;99.60;;;;;;4941281;29;19934;-80
2022/11/23 21:36:43;;;;;;;;;;;19.80;99.70;;;;;;4941639;29;19927;-80
2022/11/23 21:39:10;;;;;;;;;;;19.80;99.70;;;;;;4941135;29;19933;-80
2022/11/23 21:41:37;;;;;;;;;;;19.80;99.70;;;;;;4940942;29;19926;-80
2022/11/23 21:44:04;;;;;;;;;;;19.80;99.70;;;;;;4941073;29;19927;-80
2022/11/23 21:46:31;;;;;;;;;;;19.80;99.70;;;;;;4941377;29;19926;-80
2022/11/23 21:49:00;;;;;;;;;;;19.80;99.80;;;;;;4940404;29;19934;-80
2022/11/23 21:51:28;;;;;;;;;;;19.70;99.80;;;;;;4940736;29;19962;-80
2022/11/23 21:53:55;;;;;;;;;;;19.70;99.80;;;;;;4940990;29;19930;-81
2022/11/23 21:56:22;;;;;;;;;;;19.70;99.90;;;;;;4940667;29;19930;-81
2022/11/23 21:58:49;;;;;;;;;;;19.70;99.90;;;;;;4940687;29;19930;-81
2022/11/23 22:01:16;;;;;;;;;;;19.70;99.90;;;;;;4940920;29;19933;-81
2022/11/23 22:03:44;;;;;;;;;;;19.70;99.90;;;;;;4940545;29;20382;-81
2022/11/23 22:06:13;;;;;;;;;;;19.70;99.90;;;;;;4940496;29;19933;-81
2022/11/23 22:08:42;;;;;;;;;;;19.70;99.90;;;;;;4940119;29;20346;-80
2022/11/23 22:11:09;;;;;;;;;;;19.80;99.90;;;;;;4940471;29;19982;-80
2022/11/23 22:13:38;;;;;;;;;;;19.70;99.90;;;;;;4940269;29;19927;-80
2022/11/23 22:16:10;;;;;;;;;;;19.80;99.90;;;;;;4939671;29;19985;-80
2022/11/23 22:18:37;;;;;;;;;;;19.80;99.90;;;;;;4939851;29;19926;-80
2022/11/23 22:21:04;;;;;;;;;;;19.80;99.90;;;;;;4940081;29;19934;-80
2022/11/23 22:23:32;;;;;;;;;;;19.70;99.90;;;;;;4939687;29;19927;-80
2022/11/23 22:26:00;;;;;;;;;;;19.80;99.90;;;;;;4939655;29;19927;-80
2022/11/23 22:28:30;;;;;;;;;;;19.80;99.90;;;;;;4939760;29;19944;-80
2022/11/23 22:30:57;;;;;;;;;;;19.80;99.90;;;;;;4939809;29;19974;-80
2022/11/23 22:33:23;;;;;;;;;;;19.80;99.90;;;;;;4939888;29;20025;-80
2022/11/23 22:35:50;;;;;;;;;;;19.80;99.90;;;;;;4939355;29;19926;-80
2022/11/23 22:38:16;;;;;;;;;;;19.70;99.90;;;;;;4939175;29;19935;-80
2022/11/23 22:40:46;;;;;;;;;;;19.80;99.90;;;;;;4939383;29;19926;-81
